Weather observations for the past three days for
Cumberland, Greater Cumberland Regional Airport
Metric (Imperial)
Date Time (edt) Wind (kph) Vis. (km) Weather Sky Cond. Temperature (ºC) Relative Humidity Wind Chill (°C) Heat Index (°C) Pressure Precipitation (cm)
Air Dwpt 6 hour altimeter (cm) sea level (mb) 1 hr 3 hr 6 hr
Max. Min.
07 20:15 W 11 16.09 Mostly Cloudy BKN080 15.5 -0.7 33% 75.9 0.0
07 19:55 NW 9 16.09 Overcast OVC080 15.9 -0.3 19.9 15.7 33% 75.87 0.0
07 19:35 NW 13 16.09 Mostly Cloudy BKN080 16.3 0 33% 75.84 0.0
07 19:15 W 17 16.09 Overcast SCT080 OVC090 16.7 -0.3 32% 75.84 0.0
07 18:55 W 22 16.09 Mostly Cloudy BKN090 17.1 -0.1 31% 75.84 0.0
07 18:35 W 22 16.09 Mostly Cloudy BKN090 17.3 -0.1 31% 75.82 0.0
07 18:15 W 11 16.09 Mostly Cloudy BKN080 16.8 -0.1 32% 75.79 0.0
07 17:55 NW 20 G 35 16.09 Mostly Cloudy BKN080 17.1 -0.6 30% 75.79 0.0
07 17:35 NW 15 16.09 Partly Cloudy SCT080 17.3 -0.6 30% 75.79 0.0
07 17:15 NW 28 G 37 16.09 Partly Cloudy SCT080 18.5 -0.4 28% 75.77 0.0
07 16:55 NW 28 G 37 16.09 Partly Cloudy SCT080 18.1 -0.1 29% 75.77 0.0
07 16:35 NW 13 16.09 Partly Cloudy SCT080 18.8 0 28% 75.77 0.0
07 16:15 W 28 G 35 16.09 Partly Cloudy SCT080 18.8 0.5 29% 75.77 0.0
07 15:55 NW 22 G 31 16.09 Partly Cloudy SCT080 18.9 0.7 30% 75.79 0.0
07 15:35 W 19 G 30 16.09 Fair CLR 19.4 0.2 28% 75.79 0.0
07 15:15 W 20 G 30 16.09 Fair CLR 19.6 0.2 27% 75.79 0.0
07 14:55 NW 15 16.09 Fair CLR 19.2 -0.6 26% 75.79 0.0
07 14:35 N 11 16.09 Fair CLR 18.8 -1 26% 75.79 0.0
07 14:15 SW 11 G 26 16.09 Fair CLR 18.4 -0.7 28% 75.79 0.0
07 13:55 W 24 16.09 Fair CLR 18.6 0.4 19 10.4 30% 75.82 0.0
07 13:35 W 15 G 28 16.09 Fair CLR 18.4 0.5 30% 75.84 0.0
07 13:15 NW 15 16.09 Fair CLR 17.6 -0.3 30% 75.87 0.0
07 12:55 W 19 G 26 16.09 Fair CLR 17.5 -0.6 29% 75.9 0.0
07 12:35 W 11 G 28 16.09 Fair CLR 17.1 -0.4 31% 75.92 0.0
07 12:15 NW 15 16.09 Fair CLR 16.9 -0.2 32% 75.95 0.0
07 11:55 W 7 16.09 Fair CLR 16.9 1 34% 75.95 0.0
07 11:35 E 7 16.09 Fair CLR 15.9 0.2 35% 75.97 0.0
07 11:15 N 11 16.09 Fair CLR 16 -0.3 33% 76 0.0
07 10:55 W 11 16.09 Fair CLR 15.5 -0.3 34% 76.02 0.0
07 10:35 Calm 16.09 Fair CLR 14.6 0.5 38% 76.05 0.0
07 10:15 N 11 16.09 Fair CLR 14 1.2 42% 76.07 0.0
07 09:55 Calm 16.09 Partly Cloudy SCT070 13 0.5 43% 76.1 0.0
07 09:35 N 7 16.09 Overcast OVC070 12.1 1.2 48% 76.12 0.0
07 09:15 W 6 16.09 Overcast OVC080 11.8 0.8 47% 76.15 0.0
07 08:55 Calm 16.09 Overcast SCT060 OVC080 11.3 1.3 51% 76.15 0.0
07 08:35 Calm 16.09 Overcast OVC060 10.8 1.6 53% 76.15 0.0
07 08:15 Calm 16.09 Overcast OVC060 10.7 2.1 56% 76.15 0.0
07 07:55 Calm 16.09 Overcast OVC060 10.3 2.1 11.8 9.8 57% 76.15 0.0
07 07:35 Calm 16.09 Overcast OVC060 10.2 1.9 57% 76.15 0.0
07 07:15 NE 6 16.09 Overcast OVC060 10.1 2.4 59% 76.12 0.0
07 06:55 Calm 16.09 Overcast OVC060 10.1 2.1 58% 76.1 0.0
07 06:35 NE 7 16.09 Overcast OVC060 9.9 2.4 60% 9 76.1 0.0
07 06:15 NE 6 16.09 Overcast OVC060 10 1.7 57% 76.07 0.0
07 05:55 N 9 16.09 Overcast OVC060 10.4 0.6 51% 76.05 0.0
07 05:35 Calm 16.09 Overcast OVC060 10.3 1.6 55% 76.07 0.0
07 05:15 N 6 16.09 Overcast OVC060 10.5 1.2 53% 76.07 0.0
07 04:55 N 9 16.09 Overcast OVC060 10.6 1.3 53% 76.05 0.0
07 04:35 N 11 16.09 Overcast OVC060 10.8 1.9 54% 76.05 0.0
07 04:15 N 6 16.09 Overcast OVC050 11 2 54% 76.05 0.0
07 03:55 N 13 16.09 Overcast OVC050 11.1 1.8 53% 76.05 0.0
07 03:15 N 11 16.09 Overcast SCT033 OVC050 11.4 4.1 61% 76.02 0.0
07 02:55 N 9 16.09 Overcast SCT033 OVC050 11.4 4.4 62% 76.02 0.0
07 02:35 N 9 16.09 Overcast SCT027 SCT033 OVC050 11.5 5.3 66% 76.02 0.0
07 02:15 N 9 16.09 Overcast BKN027 OVC033 11.7 6.3 70% 76.02 0.0
07 01:55 N 6 16.09 Overcast BKN027 BKN050 OVC060 11.7 7.4 13.7 11.6 75% 76.05 0.0
07 01:35 N 7 16.09 Overcast BKN049 OVC060 11.7 7.7 77% 76.05 0.0
07 01:15 N 6 16.09 Overcast BKN049 OVC070 12 7.4 74% 76.05 0.0
07 00:55 N 9 16.09 Overcast BKN047 OVC070 11.9 7.5 75% 76.05 0.0
07 00:35 N 9 16.09 Overcast OVC047 12 7.6 75% 76.05 0.0
07 00:15 N 7 16.09 Overcast OVC043 12 7.5 74% 76.05 0.0
06 23:55 NE 7 16.09 Overcast OVC041 11.8 7.7 76% 76.02 0.0
06 23:35 N 9 16.09 Light Rain OVC039 12 7.6 75% 76.05 0.0
06 23:15 N 7 16.09 Overcast OVC035 12 7 72% 76.05 0.0
06 22:55 N 7 16.09 Overcast OVC033 12.3 7.1 71% 76.02 0.0
06 22:35 NW 11 16.09 Overcast OVC031 12.4 7 70% 76.05 0.0
06 22:15 N 11 16.09 Overcast OVC029 12.4 7.6 73% 76.02 0.0
06 21:55 N 17 16.09 Overcast OVC023 12.5 7.8 73% 76.02 0.0
06 21:35 NW 11 16.09 Overcast OVC021 12.6 8.3 75% 76.02 0.0
06 21:15 N 15 16.09 Overcast OVC023 13.3 8.9 75% 75.97 0.0
06 20:55 NW 11 16.09 Overcast OVC023 13.4 9.3 76% 76 0.0
06 20:35 NW 15 16.09 Overcast OVC023 13.4 9.2 76% 75.97 0.0
06 20:15 W 11 16.09 Overcast OVC023 13.4 9.3 76% 76.02 0.0
06 19:55 W 11 16.09 Overcast OVC025 13.7 9.4 18.4 13.7 75% 76 0.0
06 19:35 W 19 16.09 Overcast OVC027 14.1 9.4 74% 75.95 0.0
06 19:15 NW 17 16.09 Overcast OVC029 14.4 9.5 73% 75.95 0.0
06 18:55 NW 13 16.09 Overcast SCT026 OVC033 14.6 9.7 73% 75.9 0.0
06 18:35 NW 17 16.09 Overcast OVC034 14.8 9.6 71% 75.92 0.0
06 18:15 NW 19 16.09 Overcast OVC032 15 9.9 72% 75.9 0.0
06 17:55 NW 22 16.09 Overcast OVC030 15 10 72% 75.9 0.0
06 17:35 NW 19 16.09 Overcast OVC028 15.5 10.4 72% 75.84 0.0
06 17:15 N 17 16.09 Overcast BKN028 OVC032 15.8 10.8 72% 75.82 0.0
06 16:55 N 13 16.09 Overcast SCT026 OVC032 16.2 11.3 73% 75.82 0.0
06 16:35 N 13 16.09 Overcast SCT022 OVC030 16.5 12 75% 75.77 0.0
06 16:15 NW 17 G 28 16.09 Overcast BKN030 OVC038 17.3 12.1 72% 75.77 0.0
06 15:55 W 13 16.09 Overcast BKN030 OVC038 18.2 13 72% 75.74 0.0
06 15:35 NW 13 16.09 Overcast BKN030 OVC039 17.8 14.6 82% 75.72 0.0
06 15:15 N 7 16.09 Overcast SCT034 BKN041 OVC048 17.4 15.1 86% 75.69 0.0
06 14:55 N 9 16.09 Overcast SCT030 BKN035 OVC046 17 15.2 89% 75.69 0.0
06 14:35 N 9 16.09 Overcast BKN032 OVC037 16.4 15 92% 75.69 0.0
06 14:15 N 7 16.09 Overcast BKN037 OVC045 16.5 15 91% 75.69 0.0
06 13:55 Calm 16.09 Overcast BKN035 OVC044 16.1 14.5 16.4 13.3 90% 75.72 0.0 0.15
06 13:35 Calm 16.09 Overcast BKN035 OVC044 16.1 14.7 91% 75.72 0.0
06 13:15 Calm 16.09 Overcast BKN032 BKN040 OVC046 16.1 14.4 90% 75.72 0.0
06 12:55 Calm 11.27 Rain OVC031 15.7 14.2 91% 75.72 0.0
06 12:35 Calm 11.27 Overcast OVC029 15.6 14.1 91% 75.69 0.0
06 12:15 Calm 16.09 Overcast OVC029 15.6 14.2 91% 75.69 0.0
06 11:55 Calm 16.09 Light Drizzle OVC029 15.5 13.9 90% 75.69 0.0
06 11:35 Calm 16.09 Overcast OVC029 15.3 13.8 91% 75.69 0.0
06 11:15 SW 9 16.09 Overcast OVC031 15.3 13.4 89% 75.69 0.0
06 10:55 Calm 16.09 Overcast OVC031 15.3 13.7 90% 75.64 0.0 0.15
06 10:35 S 7 16.09 Overcast OVC031 14.8 13.4 91% 75.69 0.0
06 10:15 SW 7 16.09 Overcast OVC035 14.9 13.3 90% 75.67 0.0
06 09:55 Calm 16.09 Light Rain OVC035 14.7 13.7 94% 75.67 0.0 0.08
06 09:35 Calm 8.05 Light Rain Fog/Mist OVC037 14.2 13.5 96% 75.69 0.0 0.08
06 09:15 Calm 8.05 Light Rain Fog/Mist BKN039 BKN046 OVC055 14 13.1 94% 75.72 0.0 0.03
06 08:55 Calm 5.63 Light Rain Fog/Mist SCT046 OVC060 14 13.2 95% 75.69 0.0 0.08
06 08:35 Calm 16.09 Light Rain SCT044 BKN060 OVC085 13.9 13 94% 75.69 0.0 0.05
06 08:15 Calm 6.44 Light Rain Fog/Mist BKN055 BKN070 OVC085 13.4 12.6 95% 75.69 0.0 0.05
06 07:55 Calm 4.02 Light Rain Fog/Mist SCT043 BKN065 OVC090 13.5 12.6 16.3 13.4 94% 75.69 0.0 0.15 0.2
06 07:35 Calm 11.27 Light Rain SCT049 SCT065 OVC100 13.8 12.4 91% 75.69 0.0 0.05
06 06:55 NE 7 11.27 Light Rain OVC100 13.8 11.7 87% 75.69 0.0 0.05
06 06:35 NE 6 11.27 Light Rain OVC100 13.7 11.7 88% 75.69 0.0 0.03
06 06:15 N 6 16.09 Light Rain OVC100 13.6 11.7 88% 75.69 0.0
06 05:55 Calm 16.09 Light Rain OVC110 14.1 11.5 84% 75.67 0.0
06 05:35 Calm 16.09 Light Rain BKN095 BKN120 14.5 11.3 81% 75.64 0.0
06 05:15 Calm 16.09 Partly Cloudy SCT085 SCT120 14.4 10.3 77% 75.64 0.0
06 04:55 Calm 16.09 Mostly Cloudy SCT085 BKN120 14.5 10.8 79% 75.64 0.0
06 04:35 Calm 16.09 Partly Cloudy SCT090 SCT120 14.6 10.2 75% 75.64 0.0
06 04:15 Calm 16.09 Partly Cloudy SCT090 SCT110 15.1 10 72% 75.64 0.0
06 03:55 Calm 16.09 Partly Cloudy SCT110 14.5 9.9 74% 75.64 0.0
06 03:35 Calm 16.09 Mostly Cloudy BKN090 15.3 9.9 70% 75.64 0.0
06 03:15 Calm 16.09 Mostly Cloudy BKN090 15.8 10.4 70% 75.64 0.0
06 02:55 Calm 16.09 Overcast OVC090 16.2 10 67% 75.67 0.0
06 02:35 Calm 16.09 Overcast OVC090 15.9 9.7 67% 75.69 0.0
06 02:15 Calm 16.09 Overcast OVC090 16 9.6 66% 75.69 0.0
06 01:55 Calm 16.09 Mostly Cloudy BKN090 16.1 9.7 23.6 15.6 66% 75.72 0.0
06 01:15 Calm 16.09 Overcast OVC100 16.4 9.9 66% 75.74 0.0
06 00:55 Calm 16.09 Overcast OVC100 16.8 10 64% 75.77 0.0
06 00:35 Calm 16.09 Overcast OVC100 17.2 10.3 64% 75.77 0.0
06 00:15 W 9 16.09 Overcast OVC100 16.7 10.5 67% 75.79 0.0
05 23:55 E 6 16.09 Overcast OVC100 17.6 9.2 58% 75.77 0.0
05 23:35 Calm 16.09 Overcast OVC110 17.9 9 56% 75.77 0.0
05 23:15 Calm 16.09 Mostly Cloudy BKN120 18.4 8.8 54% 75.77 0.0
05 22:55 Calm 16.09 Partly Cloudy SCT120 18.4 8.3 52% 75.77 0.0
05 22:35 Calm 16.09 Fair CLR 19.9 7.3 44% 75.77 0.0
05 22:15 S 6 16.09 Fair CLR 20.4 7.2 43% 75.77 0.0
05 21:55 S 6 16.09 Fair CLR 20.3 6.9 42% 75.77 0.0
05 21:35 S 6 16.09 Fair CLR 21.7 6.4 37% 75.77 0.0
05 21:15 S 6 16.09 Fair CLR 20.9 6.6 40% 75.74 0.0
05 20:55 Calm 16.09 Fair CLR 21.2 6.4 38% 75.74 0.0
05 20:35 SW 6 16.09 Fair CLR 21.4 6.7 39% 75.72 0.0
05 20:15 W 9 16.09 Fair CLR 22.5 6.6 36% 75.72 0.0
05 19:55 SW 13 16.09 Fair CLR 23.4 6.6 28.6 23.3 34% 75.69 0.0
05 19:35 SW 15 16.09 Fair CLR 23.7 6.3 33% 75.69 0.0
05 19:15 SW 11 16.09 Fair CLR 24.3 6 31% 25 75.69 0.0
05 18:55 W 13 G 28 16.09 Fair CLR 24.9 5.9 30% 25 75.69 0.0
05 18:35 W 19 G 33 16.09 Fair CLR 25.2 5.4 28% 25 75.69 0.0
05 18:15 W 20 G 37 16.09 Fair CLR 25.7 4.9 26% 26 75.69 0.0
05 17:55 W 20 G 31 16.09 Fair CLR 25.9 4.6 25% 26 75.69 0.0
05 17:35 W 19 G 31 16.09 Fair CLR 26.2 4.2 24% 26 75.67 0.0
05 17:15 W 17 G 33 16.09 Fair CLR 26.4 4.3 24% 26 75.69 0.0
05 16:55 W 20 G 31 16.09 Fair CLR 27.1 3.1 21% 26 75.67 0.0
05 16:35 SW 24 G 46 16.09 Fair CLR 27.1 3 21% 26 75.67 0.0
05 16:15 SW 24 G 35 16.09 Fair CLR 28 3.6 21% 27 75.67 0.0
05 15:35 SW 22 G 35 16.09 Fair CLR 28.3 4.7 22% 27 75.69 0.0
05 15:15 W 28 G 41 16.09 Fair CLR 28.1 4.7 22% 27 75.69 0.0
05 14:55 SW 22 G 44 16.09 Fair CLR 28 5.1 23% 27 75.72 0.0
05 14:35 SW 30 G 44 16.09 Fair CLR 28 5.5 24% 27 75.74 0.0
05 14:15 SW 28 G 37 16.09 Fair CLR 27.2 6 26% 26 75.77 0.0
05 13:55 SW 20 G 52 16.09 Fair CLR 27.2 7 27.4 12.8 28% 26 75.77 0.0
05 13:35 SW 24 G 33 16.09 Fair CLR 26.8 7.2 29% 26 75.79 0.0
05 13:15 SW 22 16.09 Fair CLR 25.7 7.4 31% 26 75.82 0.0
05 12:55 SW 31 G 39 16.09 Fair CLR 25.5 7.4 32% 26 75.84 0.0
05 12:35 SW 26 G 43 16.09 Fair CLR 25.8 7.4 31% 26 75.84 0.0
05 12:15 SW 24 G 35 16.09 Fair CLR 25.7 8.1 33% 26 75.87 0.0
05 11:55 SW 35 G 52 16.09 Fair and Breezy CLR 24.7 7.5 33% 25 75.9 0.0
05 11:35 SW 26 G 50 16.09 Partly Cloudy SCT080 24.8 7.5 33% 25 75.9 0.0
05 11:15 SW 26 G 46 16.09 Partly Cloudy SCT080 25 7.8 33% 25 75.9 0.0
05 10:55 SW 26 G 59 16.09 Partly Cloudy SCT070 24.1 7.6 35% 25 75.9 0.0
05 10:35 SW 41 G 57 16.09 Mostly Cloudy and Breezy BKN070 24.4 7.8 35% 25 75.9 0.0
05 10:15 SW 30 G 41 16.09 Partly Cloudy SCT070 SCT080 24.6 8.5 36% 25 75.9 0.0
05 09:50 S 9 16.09 Fair CLR 23.1 10 44% 75.87 0.0
05 09:35 SW 7 16.09 Fair CLR 21.5 10 48% 75.9 0.0
05 09:15 SE 7 16.09 Fair CLR 19.2 10 55% 75.9 0.0
05 08:55 S 7 16.09 Fair CLR 16.9 9.9 64% 75.92 0.0
05 08:35 SW 6 16.09 Fair CLR 15.1 9.3 69% 75.95 0.0
05 08:15 Calm 16.09 Fair CLR 13.8 9.7 76% 75.95 0.0
05 07:55 Calm 16.09 Fair CLR 13 9.3 13.8 9.5 78% 75.97 0.0
05 07:35 Calm 16.09 Fair CLR 11.8 9 83% 75.97 0.0
05 07:15 Calm 16.09 Fair CLR 10.3 8.5 89% 75.97 0.0
05 06:55 Calm 16.09 Fair CLR 10 8.4 90% 75.95 0.0
05 06:35 Calm 16.09 Fair CLR 9.7 8.2 90% 75.95 0.0
05 06:15 Calm 16.09 Fair CLR 9.7 8.1 90% 75.92 0.0
05 05:55 Calm 16.09 Fair CLR 10.6 8.1 85% 75.9 0.0
05 05:35 NE 6 16.09 Fair CLR 10.8 8.3 85% 75.9 0.0
05 05:15 Calm 16.09 Fair CLR 10.7 8 84% 75.9 0.0
05 04:55 Calm 16.09 Partly Cloudy SCT110 10.1 8.4 89% 75.87 0.0
05 04:35 Calm 16.09 Overcast OVC110 11.4 8.6 83% 75.87 0.0
05 04:15 NE 6 16.09 Mostly Cloudy BKN120 11.2 8.6 84% 75.84 0.0
05 03:55 N 6 16.09 Partly Cloudy SCT120 11.1 8.3 83% 75.87 0.0
05 03:35 Calm 16.09 Partly Cloudy SCT120 11 8.1 82% 75.84 0.0
05 03:15 Calm 16.09 Fair CLR 10.6 7.9 84% 75.84 0.0
05 02:55 Calm 16.09 Fair CLR 12.8 8.2 74% 75.82 0.0
05 02:35 N 6 16.09 Fair CLR 12.7 8.3 75% 75.84 0.0
05 02:15 Calm 16.09 Fair CLR 12.8 8.3 74% 75.84 0.0
05 01:55 Calm 16.09 Fair CLR 14 7.9 22.3 13.8 67% 75.84 0.0
05 01:35 Calm 16.09 Fair CLR 14.5 7.5 63% 75.84 0.0
05 01:15 N 6 16.09 Fair CLR 14.8 7.8 63% 75.84 0.0
05 00:55 Calm 16.09 Fair CLR 15.9 7.3 57% 75.84 0.0
05 00:35 SE 7 16.09 Fair CLR 16.2 7.2 55% 75.82 0.0
05 00:15 SE 7 16.09 Fair CLR 16.3 7.3 55% 75.82 0.0
04 23:55 SE 7 16.09 Fair CLR 16.2 7.4 56% 75.82 0.0
04 23:35 S 6 16.09 Fair CLR 17.2 7.3 52% 75.82 0.0
04 23:15 Calm 16.09 Fair CLR 16.9 7.4 54% 75.82 0.0
04 22:55 S 6 11.27 Fair with Haze CLR 18.7 7.3 48% 75.82 0.0
04 22:35 S 9 16.09 Partly Cloudy SCT060 SCT100 18.9 7.4 47% 75.84 0.0
04 22:15 SW 11 16.09 Fair CLR 19 7.4 47% 75.84 0.0
04 21:55 S 9 16.09 Fair CLR 19.8 7.2 44% 75.82 0.0
04 21:35 S 9 16.09 Fair CLR 20.3 7.2 43% 75.82 0.0
04 21:15 SW 11 16.09 Fair CLR 20.7 7.2 42% 75.79 0.0
04 20:55 SW 15 16.09 Partly Cloudy SCT100 21 7.1 41% 75.79 0.0
04 20:35 SW 15 16.09 Partly Cloudy SCT120 21.4 7.1 40% 75.79 0.0
Date Time (edt) Wind (kph) Vis. (km) Weather Sky Cond. Air Dwpt Max. Min. Relative Humidity Wind Chill (°C) Heat Index (°C) altimeter (cm) sea level (mb) 1 hr 3 hr 6 hr
6 hour
Temperature (ºC) Pressure Precipitation (cm)